Terminal Aerodrome Forecast
Issued by NWS Austin/San Antonio, TX

Home | Current Version | Previous Version | Text Only | Print | Product List | Glossary On
Versions: 1 2 3 4 5 6 7 8 9 10 11 12 13 14 15 16
000
FTUS44 KEWX 292326
TAFAUS
TAF
KAUS 292326Z 3000/3106 17010KT P6SM FEW070 SCT200
     FM300900 22003KT P6SM FEW013
      TEMPO 3011/3013 6SM BR
     FM301800 13007KT P6SM FEW070=

USA.gov is the U.S. government's official web portal to all federal, state and local government web resources and services.